PRPJA SBSI-SSOU
Flight info
| Callsign | PRPJA |
|---|---|
| Flight time | 0h 57m |
| Altitude | 26000 |
| Route | PALEP UZ40 KOGVA |
| Aircraft | B350/L-SDFG/S |
Departure
| Time | 2026-04-19 22:54 |
|---|---|
| Airport | Presidente João Batista Figueiredo Airport (SBSI) |
Arrival
| Time | 2026-04-19 23:51 |
|---|---|
| Airport | Aripuanã Airport (SSOU) |
| Time | Latitude | Longitude | Altitude | Speed | Heading |
|---|---|---|---|---|---|
| 2026-04-19 22:26 | -11.88072 | -55.58269 | 1221 ft | 0 kts | 300° |
| 2026-04-19 22:48 | -11.88072 | -55.58270 | 1221 ft | 0 kts | 300° |
| 2026-04-19 22:48 | -11.88063 | -55.58273 | 1221 ft | 2 kts | 19° |
| 2026-04-19 22:48 | -11.88040 | -55.58267 | 1222 ft | 4 kts | 13° |
| 2026-04-19 22:48 | -11.88016 | -55.58263 | 1222 ft | 0 kts | 8° |
| 2026-04-19 22:49 | -11.88003 | -55.58263 | 1223 ft | 2 kts | 333° |
| 2026-04-19 22:49 | -11.87987 | -55.58290 | 1222 ft | 5 kts | 330° |
| 2026-04-19 22:49 | -11.87939 | -55.58310 | 1222 ft | 8 kts | 345° |
| 2026-04-19 22:50 | -11.87879 | -55.58296 | 1223 ft | 0 kts | 10° |
| 2026-04-19 22:50 | -11.87865 | -55.58295 | 1222 ft | 3 kts | 349° |
| 2026-04-19 22:50 | -11.87846 | -55.58326 | 1223 ft | 6 kts | 287° |
| 2026-04-19 22:50 | -11.87837 | -55.58361 | 1223 ft | 0 kts | 287° |
| 2026-04-19 22:51 | -11.87836 | -55.58362 | 1223 ft | 1 kts | 287° |
| 2026-04-19 22:51 | -11.87816 | -55.58432 | 1223 ft | 8 kts | 307° |
| 2026-04-19 22:51 | -11.87755 | -55.58434 | 1222 ft | 10 kts | 15° |
| 2026-04-19 22:52 | -11.87676 | -55.58412 | 1223 ft | 12 kts | 9° |
| 2026-04-19 22:52 | -11.87590 | -55.58389 | 1223 ft | 13 kts | 14° |
| 2026-04-19 22:52 | -11.87505 | -55.58379 | 1225 ft | 10 kts | 345° |
| 2026-04-19 22:52 | -11.87497 | -55.58363 | 1225 ft | 0 kts | 205° |
| 2026-04-19 22:53 | -11.87503 | -55.58364 | 1225 ft | 0 kts | 192° |
| 2026-04-19 22:53 | -11.87538 | -55.58373 | 1224 ft | 21 kts | 195° |
| 2026-04-19 22:53 | -11.87974 | -55.58490 | 1223 ft | 110 kts | 195° |
| 2026-04-19 22:53 | -11.88884 | -55.58705 | 1472 ft | 146 kts | 191° |
| 2026-04-19 22:54 | -11.89867 | -55.58947 | 2141 ft | 150 kts | 200° |
| 2026-04-19 22:54 | -11.90843 | -55.59578 | 2438 ft | 178 kts | 228° |
| 2026-04-19 22:54 | -11.91537 | -55.60603 | 3100 ft | 179 kts | 249° |
| 2026-04-19 22:54 | -11.91716 | -55.61837 | 3740 ft | 179 kts | 269° |
| 2026-04-19 22:55 | -11.91431 | -55.63028 | 4349 ft | 177 kts | 302° |
| 2026-04-19 22:55 | -11.90763 | -55.64069 | 4952 ft | 178 kts | 305° |
| 2026-04-19 22:55 | -11.90067 | -55.65132 | 5531 ft | 181 kts | 305° |
| 2026-04-19 22:55 | -11.89375 | -55.66191 | 6080 ft | 183 kts | 305° |
| 2026-04-19 22:56 | -11.88796 | -55.67345 | 6613 ft | 186 kts | 281° |
| 2026-04-19 22:56 | -11.88702 | -55.68657 | 7140 ft | 188 kts | 272° |
| 2026-04-19 22:56 | -11.88686 | -55.69999 | 7672 ft | 189 kts | 271° |
| 2026-04-19 22:56 | -11.88693 | -55.71345 | 8181 ft | 191 kts | 270° |
| 2026-04-19 22:57 | -11.88707 | -55.72683 | 8661 ft | 192 kts | 270° |
| 2026-04-19 22:57 | -11.88724 | -55.74050 | 9139 ft | 193 kts | 269° |
| 2026-04-19 22:57 | -11.88743 | -55.75422 | 9599 ft | 195 kts | 269° |
| 2026-04-19 22:57 | -11.88762 | -55.76820 | 10040 ft | 197 kts | 269° |
| 2026-04-19 22:58 | -11.88781 | -55.78214 | 10463 ft | 199 kts | 269° |
| 2026-04-19 22:58 | -11.88800 | -55.79625 | 10882 ft | 200 kts | 269° |
| 2026-04-19 22:58 | -11.88819 | -55.81051 | 11287 ft | 202 kts | 269° |
| 2026-04-19 22:58 | -11.88839 | -55.82472 | 11673 ft | 203 kts | 269° |
| 2026-04-19 22:59 | -11.88858 | -55.83921 | 12058 ft | 205 kts | 269° |
| 2026-04-19 22:59 | -11.88878 | -55.85378 | 12438 ft | 206 kts | 268° |
| 2026-04-19 22:59 | -11.88897 | -55.86839 | 12798 ft | 207 kts | 268° |
| 2026-04-19 22:59 | -11.88917 | -55.88305 | 13151 ft | 208 kts | 268° |
| 2026-04-19 23:00 | -11.88937 | -55.89790 | 13500 ft | 212 kts | 268° |
| 2026-04-19 23:00 | -11.88957 | -55.91313 | 13888 ft | 214 kts | 268° |
| 2026-04-19 23:00 | -11.88977 | -55.92834 | 14288 ft | 215 kts | 268° |
| 2026-04-19 23:00 | -11.88998 | -55.94368 | 14681 ft | 216 kts | 268° |
| 2026-04-19 23:01 | -11.89018 | -55.95899 | 15072 ft | 218 kts | 268° |
| 2026-04-19 23:01 | -11.89038 | -55.97437 | 15454 ft | 219 kts | 268° |
| 2026-04-19 23:01 | -11.89058 | -55.98982 | 15824 ft | 220 kts | 268° |
| 2026-04-19 23:01 | -11.89078 | -56.00554 | 16171 ft | 222 kts | 268° |
| 2026-04-19 23:02 | -11.89098 | -56.02131 | 16506 ft | 224 kts | 269° |
| 2026-04-19 23:02 | -11.89119 | -56.03731 | 16834 ft | 226 kts | 269° |
| 2026-04-19 23:02 | -11.89139 | -56.05348 | 17148 ft | 228 kts | 269° |
| 2026-04-19 23:02 | -11.89160 | -56.06964 | 17450 ft | 231 kts | 269° |
| 2026-04-19 23:03 | -11.89181 | -56.08607 | 17774 ft | 231 kts | 268° |
| 2026-04-19 23:03 | -11.89203 | -56.10252 | 18087 ft | 232 kts | 268° |
| 2026-04-19 23:03 | -11.89225 | -56.11897 | 18395 ft | 232 kts | 268° |
| 2026-04-19 23:03 | -11.89246 | -56.13524 | 18690 ft | 233 kts | 268° |
| 2026-04-19 23:04 | -11.89266 | -56.15188 | 18980 ft | 233 kts | 268° |
| 2026-04-19 23:04 | -11.89287 | -56.16833 | 19256 ft | 234 kts | 268° |
| 2026-04-19 23:04 | -11.89307 | -56.18490 | 19526 ft | 235 kts | 268° |
| 2026-04-19 23:04 | -11.89177 | -56.20166 | 19762 ft | 236 kts | 287° |
| 2026-04-19 23:05 | -11.88552 | -56.21697 | 20003 ft | 237 kts | 294° |
| 2026-04-19 23:05 | -11.87879 | -56.23230 | 20256 ft | 237 kts | 294° |
| 2026-04-19 23:05 | -11.87197 | -56.24781 | 20495 ft | 238 kts | 294° |
| 2026-04-19 23:05 | -11.86522 | -56.26316 | 20721 ft | 239 kts | 294° |
| 2026-04-19 23:06 | -11.85835 | -56.27878 | 20948 ft | 240 kts | 294° |
| 2026-04-19 23:06 | -11.85147 | -56.29445 | 21166 ft | 241 kts | 294° |
| 2026-04-19 23:06 | -11.84468 | -56.30989 | 21377 ft | 241 kts | 294° |
| 2026-04-19 23:06 | -11.83775 | -56.32564 | 21587 ft | 242 kts | 294° |
| 2026-04-19 23:07 | -11.83088 | -56.34127 | 21777 ft | 243 kts | 294° |
| 2026-04-19 23:07 | -11.82390 | -56.35713 | 21974 ft | 244 kts | 294° |
| 2026-04-19 23:07 | -11.81688 | -56.37307 | 22160 ft | 245 kts | 294° |
| 2026-04-19 23:07 | -11.80993 | -56.38886 | 22353 ft | 245 kts | 294° |
| 2026-04-19 23:08 | -11.80291 | -56.40482 | 22556 ft | 247 kts | 294° |
| 2026-04-19 23:08 | -11.79583 | -56.42091 | 22821 ft | 248 kts | 294° |
| 2026-04-19 23:08 | -11.78881 | -56.43685 | 23112 ft | 248 kts | 294° |
| 2026-04-19 23:08 | -11.78175 | -56.45289 | 23392 ft | 248 kts | 294° |
| 2026-04-19 23:09 | -11.77461 | -56.46909 | 23662 ft | 249 kts | 294° |
| 2026-04-19 23:09 | -11.76760 | -56.48500 | 23910 ft | 250 kts | 294° |
| 2026-04-19 23:09 | -11.76044 | -56.50126 | 24150 ft | 251 kts | 293° |
| 2026-04-19 23:09 | -11.75330 | -56.51746 | 24394 ft | 252 kts | 293° |
| 2026-04-19 23:10 | -11.74608 | -56.53383 | 24625 ft | 253 kts | 294° |
| 2026-04-19 23:10 | -11.73890 | -56.55013 | 24860 ft | 253 kts | 294° |
| 2026-04-19 23:10 | -11.73167 | -56.56653 | 25088 ft | 254 kts | 294° |
| 2026-04-19 23:10 | -11.72434 | -56.58315 | 25311 ft | 255 kts | 294° |
| 2026-04-19 23:11 | -11.71704 | -56.59969 | 25527 ft | 256 kts | 293° |
| 2026-04-19 23:11 | -11.70979 | -56.61610 | 25734 ft | 256 kts | 294° |
| 2026-04-19 23:11 | -11.70245 | -56.63274 | 25918 ft | 259 kts | 294° |
| 2026-04-19 23:11 | -11.69485 | -56.64997 | 25951 ft | 267 kts | 294° |
| 2026-04-19 23:12 | -11.68714 | -56.66742 | 25959 ft | 276 kts | 294° |
| 2026-04-19 23:12 | -11.67910 | -56.68563 | 25962 ft | 284 kts | 294° |
| 2026-04-19 23:12 | -11.67097 | -56.70402 | 25961 ft | 290 kts | 294° |
| 2026-04-19 23:12 | -11.66252 | -56.72315 | 25960 ft | 295 kts | 294° |
| 2026-04-19 23:13 | -11.65400 | -56.74242 | 25958 ft | 300 kts | 294° |
| 2026-04-19 23:13 | -11.64538 | -56.76193 | 25957 ft | 304 kts | 294° |
| 2026-04-19 23:13 | -11.63663 | -56.78175 | 25956 ft | 308 kts | 294° |
| 2026-04-19 23:13 | -11.62775 | -56.80182 | 25956 ft | 311 kts | 294° |
| 2026-04-19 23:14 | -11.61888 | -56.82189 | 25953 ft | 314 kts | 294° |
| 2026-04-19 23:14 | -11.60984 | -56.84233 | 25954 ft | 317 kts | 294° |
| 2026-04-19 23:14 | -11.60069 | -56.86301 | 25953 ft | 320 kts | 294° |
| 2026-04-19 23:14 | -11.59153 | -56.88370 | 25953 ft | 323 kts | 294° |
| 2026-04-19 23:15 | -11.58215 | -56.90490 | 25953 ft | 325 kts | 294° |
| 2026-04-19 23:15 | -11.57286 | -56.92588 | 25952 ft | 327 kts | 294° |
| 2026-04-19 23:15 | -11.56349 | -56.94704 | 25951 ft | 329 kts | 294° |
| 2026-04-19 23:15 | -11.55401 | -56.96845 | 25956 ft | 330 kts | 294° |
| 2026-04-19 23:16 | -11.54458 | -56.98974 | 25954 ft | 332 kts | 294° |
| 2026-04-19 23:16 | -11.53493 | -57.01151 | 25953 ft | 333 kts | 294° |
| 2026-04-19 23:16 | -11.52552 | -57.03275 | 25950 ft | 334 kts | 294° |
| 2026-04-19 23:16 | -11.51592 | -57.05441 | 25954 ft | 334 kts | 294° |
| 2026-04-19 23:17 | -11.50629 | -57.07612 | 25950 ft | 334 kts | 294° |
| 2026-04-19 23:17 | -11.49673 | -57.09769 | 25945 ft | 334 kts | 294° |
| 2026-04-19 23:17 | -11.48722 | -57.11913 | 25944 ft | 334 kts | 294° |
| 2026-04-19 23:17 | -11.47767 | -57.14065 | 25943 ft | 334 kts | 294° |
| 2026-04-19 23:18 | -11.46810 | -57.16221 | 25945 ft | 334 kts | 294° |
| 2026-04-19 23:18 | -11.45852 | -57.18378 | 25944 ft | 334 kts | 294° |
| 2026-04-19 23:18 | -11.44894 | -57.20536 | 25943 ft | 334 kts | 294° |
| 2026-04-19 23:18 | -11.43945 | -57.22674 | 25945 ft | 333 kts | 294° |
| 2026-04-19 23:19 | -11.42979 | -57.24847 | 25941 ft | 333 kts | 294° |
| 2026-04-19 23:19 | -11.42030 | -57.26985 | 25942 ft | 333 kts | 294° |
| 2026-04-19 23:19 | -11.41066 | -57.29153 | 25937 ft | 333 kts | 294° |
| 2026-04-19 23:19 | -11.40109 | -57.31307 | 25935 ft | 334 kts | 294° |
| 2026-04-19 23:20 | -11.39154 | -57.33454 | 25932 ft | 334 kts | 294° |
| 2026-04-19 23:20 | -11.38189 | -57.35624 | 25933 ft | 334 kts | 294° |
| 2026-04-19 23:20 | -11.37240 | -57.37758 | 25931 ft | 334 kts | 294° |
| 2026-04-19 23:20 | -11.36283 | -57.39909 | 25930 ft | 334 kts | 294° |
| 2026-04-19 23:21 | -11.35325 | -57.42062 | 25923 ft | 334 kts | 294° |
| 2026-04-19 23:21 | -11.34361 | -57.44227 | 25923 ft | 334 kts | 294° |
| 2026-04-19 23:21 | -11.33403 | -57.46378 | 25921 ft | 334 kts | 294° |
| 2026-04-19 23:21 | -11.32432 | -57.48558 | 25918 ft | 335 kts | 294° |
| 2026-04-19 23:22 | -11.31471 | -57.50716 | 25914 ft | 335 kts | 294° |
| 2026-04-19 23:22 | -11.30511 | -57.52871 | 25912 ft | 335 kts | 294° |
| 2026-04-19 23:22 | -11.29546 | -57.55036 | 25912 ft | 335 kts | 294° |
| 2026-04-19 23:22 | -11.28579 | -57.57205 | 25913 ft | 335 kts | 294° |
| 2026-04-19 23:23 | -11.27630 | -57.59334 | 25910 ft | 335 kts | 294° |
| 2026-04-19 23:23 | -11.26668 | -57.61492 | 25912 ft | 334 kts | 294° |
| 2026-04-19 23:23 | -11.25699 | -57.63665 | 25910 ft | 335 kts | 294° |
| 2026-04-19 23:23 | -11.24733 | -57.65829 | 25911 ft | 334 kts | 294° |
| 2026-04-19 23:24 | -11.23773 | -57.67981 | 25909 ft | 335 kts | 294° |
| 2026-04-19 23:24 | -11.22811 | -57.70136 | 25908 ft | 334 kts | 294° |
| 2026-04-19 23:24 | -11.21857 | -57.72274 | 25906 ft | 335 kts | 295° |
| 2026-04-19 23:24 | -11.20889 | -57.74441 | 25907 ft | 335 kts | 295° |
| 2026-04-19 23:25 | -11.19925 | -57.76599 | 25909 ft | 334 kts | 295° |
| 2026-04-19 23:25 | -11.18966 | -57.78746 | 25912 ft | 334 kts | 295° |
| 2026-04-19 23:25 | -11.18000 | -57.80907 | 25914 ft | 334 kts | 295° |
| 2026-04-19 23:25 | -11.17033 | -57.83069 | 25920 ft | 334 kts | 294° |
| 2026-04-19 23:26 | -11.16079 | -57.85204 | 25927 ft | 334 kts | 294° |
| 2026-04-19 23:26 | -11.15118 | -57.87353 | 25932 ft | 334 kts | 294° |
| 2026-04-19 23:26 | -11.14158 | -57.89499 | 25941 ft | 334 kts | 294° |
| 2026-04-19 23:26 | -11.13182 | -57.91680 | 25947 ft | 334 kts | 294° |
| 2026-04-19 23:27 | -11.12221 | -57.93828 | 25950 ft | 334 kts | 294° |
| 2026-04-19 23:27 | -11.11264 | -57.95969 | 25950 ft | 334 kts | 295° |
| 2026-04-19 23:27 | -11.10300 | -57.98120 | 25952 ft | 334 kts | 295° |
| 2026-04-19 23:27 | -11.09340 | -58.00265 | 25953 ft | 334 kts | 295° |
| 2026-04-19 23:28 | -11.08375 | -58.02420 | 25953 ft | 334 kts | 295° |
| 2026-04-19 23:28 | -11.07411 | -58.04571 | 25952 ft | 335 kts | 295° |
| 2026-04-19 23:28 | -11.06436 | -58.06747 | 25949 ft | 335 kts | 295° |
| 2026-04-19 23:28 | -11.05478 | -58.08885 | 25947 ft | 335 kts | 295° |
| 2026-04-19 23:29 | -11.04514 | -58.11035 | 25940 ft | 335 kts | 295° |
| 2026-04-19 23:29 | -11.03543 | -58.13199 | 25918 ft | 335 kts | 294° |
| 2026-04-19 23:29 | -11.02573 | -58.15364 | 25806 ft | 335 kts | 294° |
| 2026-04-19 23:29 | -11.01604 | -58.17523 | 25569 ft | 338 kts | 295° |
| 2026-04-19 23:30 | -11.00627 | -58.19687 | 25228 ft | 340 kts | 296° |
| 2026-04-19 23:30 | -10.99404 | -58.21743 | 24894 ft | 341 kts | 303° |
| 2026-04-19 23:30 | -10.98107 | -58.23781 | 24529 ft | 342 kts | 303° |
| 2026-04-19 23:30 | -10.96816 | -58.25814 | 24173 ft | 343 kts | 303° |
| 2026-04-19 23:31 | -10.95524 | -58.27850 | 23809 ft | 342 kts | 303° |
| 2026-04-19 23:31 | -10.94228 | -58.29892 | 23423 ft | 342 kts | 303° |
| 2026-04-19 23:31 | -10.92946 | -58.31910 | 23052 ft | 341 kts | 303° |
| 2026-04-19 23:31 | -10.91659 | -58.33938 | 22673 ft | 340 kts | 303° |
| 2026-04-19 23:32 | -10.90371 | -58.35965 | 22290 ft | 339 kts | 303° |
| 2026-04-19 23:32 | -10.89096 | -58.37973 | 21918 ft | 337 kts | 303° |
| 2026-04-19 23:32 | -10.87839 | -58.39951 | 21549 ft | 333 kts | 303° |
| 2026-04-19 23:32 | -10.86576 | -58.41940 | 21172 ft | 329 kts | 303° |
| 2026-04-19 23:33 | -10.85348 | -58.43874 | 20817 ft | 329 kts | 303° |
| 2026-04-19 23:33 | -10.84100 | -58.45836 | 20451 ft | 329 kts | 303° |
| 2026-04-19 23:33 | -10.82857 | -58.47791 | 20088 ft | 329 kts | 303° |
| 2026-04-19 23:33 | -10.81622 | -58.49733 | 19724 ft | 329 kts | 303° |
| 2026-04-19 23:34 | -10.80364 | -58.51712 | 19352 ft | 329 kts | 303° |
| 2026-04-19 23:34 | -10.79131 | -58.53651 | 18989 ft | 328 kts | 304° |
| 2026-04-19 23:34 | -10.77900 | -58.55586 | 18624 ft | 328 kts | 304° |
| 2026-04-19 23:34 | -10.76652 | -58.57548 | 18252 ft | 327 kts | 304° |
| 2026-04-19 23:35 | -10.75418 | -58.59486 | 17890 ft | 327 kts | 304° |
| 2026-04-19 23:35 | -10.74171 | -58.61447 | 17519 ft | 327 kts | 304° |
| 2026-04-19 23:35 | -10.72943 | -58.63374 | 17153 ft | 327 kts | 304° |
| 2026-04-19 23:35 | -10.71711 | -58.65310 | 16784 ft | 326 kts | 304° |
| 2026-04-19 23:36 | -10.70473 | -58.67253 | 16415 ft | 325 kts | 304° |
| 2026-04-19 23:36 | -10.69243 | -58.69185 | 16050 ft | 325 kts | 304° |
| 2026-04-19 23:36 | -10.68014 | -58.71114 | 15673 ft | 324 kts | 304° |
| 2026-04-19 23:36 | -10.66798 | -58.73022 | 15306 ft | 323 kts | 304° |
| 2026-04-19 23:37 | -10.65579 | -58.74936 | 14939 ft | 321 kts | 304° |
| 2026-04-19 23:37 | -10.64367 | -58.76837 | 14563 ft | 320 kts | 303° |
| 2026-04-19 23:37 | -10.63154 | -58.78739 | 14196 ft | 319 kts | 304° |
| 2026-04-19 23:37 | -10.61949 | -58.80629 | 13813 ft | 317 kts | 303° |
| 2026-04-19 23:38 | -10.60763 | -58.82489 | 13441 ft | 314 kts | 303° |
| 2026-04-19 23:38 | -10.59583 | -58.84340 | 13066 ft | 311 kts | 303° |
| 2026-04-19 23:38 | -10.58404 | -58.86188 | 12685 ft | 309 kts | 303° |
| 2026-04-19 23:38 | -10.57246 | -58.88003 | 12304 ft | 307 kts | 303° |
| 2026-04-19 23:39 | -10.56078 | -58.89833 | 11949 ft | 304 kts | 303° |
| 2026-04-19 23:39 | -10.54940 | -58.91616 | 11600 ft | 302 kts | 303° |
| 2026-04-19 23:39 | -10.53791 | -58.93417 | 11241 ft | 300 kts | 304° |
| 2026-04-19 23:39 | -10.52672 | -58.95169 | 10893 ft | 298 kts | 304° |
| 2026-04-19 23:40 | -10.51541 | -58.96941 | 10538 ft | 296 kts | 304° |
| 2026-04-19 23:40 | -10.50418 | -58.98702 | 10184 ft | 294 kts | 303° |
| 2026-04-19 23:40 | -10.49322 | -59.00419 | 9834 ft | 293 kts | 304° |
| 2026-04-19 23:40 | -10.48200 | -59.02174 | 9470 ft | 291 kts | 303° |
| 2026-04-19 23:41 | -10.47105 | -59.03890 | 9114 ft | 290 kts | 303° |
| 2026-04-19 23:41 | -10.46009 | -59.05603 | 8750 ft | 287 kts | 303° |
| 2026-04-19 23:41 | -10.44927 | -59.07291 | 8401 ft | 283 kts | 303° |
| 2026-04-19 23:41 | -10.43870 | -59.08939 | 8088 ft | 279 kts | 303° |
| 2026-04-19 23:42 | -10.42806 | -59.10592 | 7770 ft | 277 kts | 303° |
| 2026-04-19 23:42 | -10.41749 | -59.12233 | 7455 ft | 274 kts | 303° |
| 2026-04-19 23:42 | -10.40714 | -59.13841 | 7137 ft | 272 kts | 303° |
| 2026-04-19 23:42 | -10.39673 | -59.15455 | 6819 ft | 269 kts | 303° |
| 2026-04-19 23:43 | -10.38652 | -59.17036 | 6501 ft | 267 kts | 303° |
| 2026-04-19 23:43 | -10.37641 | -59.18600 | 6190 ft | 265 kts | 303° |
| 2026-04-19 23:43 | -10.36632 | -59.20158 | 5874 ft | 263 kts | 303° |
| 2026-04-19 23:43 | -10.35629 | -59.21712 | 5563 ft | 261 kts | 303° |
| 2026-04-19 23:44 | -10.34631 | -59.23262 | 5247 ft | 260 kts | 303° |
| 2026-04-19 23:44 | -10.33644 | -59.24799 | 4928 ft | 259 kts | 303° |
| 2026-04-19 23:44 | -10.32674 | -59.26313 | 4632 ft | 257 kts | 303° |
| 2026-04-19 23:44 | -10.31708 | -59.27823 | 4366 ft | 254 kts | 303° |
| 2026-04-19 23:45 | -10.30738 | -59.29339 | 4094 ft | 252 kts | 303° |
| 2026-04-19 23:45 | -10.29796 | -59.30809 | 3825 ft | 249 kts | 303° |
| 2026-04-19 23:45 | -10.28851 | -59.32288 | 3574 ft | 245 kts | 303° |
| 2026-04-19 23:45 | -10.27930 | -59.33733 | 3326 ft | 242 kts | 303° |
| 2026-04-19 23:46 | -10.27009 | -59.35149 | 3084 ft | 240 kts | 304° |
| 2026-04-19 23:46 | -10.26078 | -59.36549 | 2837 ft | 237 kts | 304° |
| 2026-04-19 23:46 | -10.25170 | -59.37909 | 2582 ft | 233 kts | 304° |
| 2026-04-19 23:46 | -10.24261 | -59.39277 | 2328 ft | 230 kts | 304° |
| 2026-04-19 23:47 | -10.23368 | -59.40625 | 2082 ft | 228 kts | 304° |
| 2026-04-19 23:47 | -10.22494 | -59.41947 | 1898 ft | 224 kts | 304° |
| 2026-04-19 23:47 | -10.21760 | -59.43294 | 1863 ft | 206 kts | 298° |
| 2026-04-19 23:47 | -10.21106 | -59.44515 | 1713 ft | 187 kts | 300° |
| 2026-04-19 23:48 | -10.20427 | -59.45561 | 1615 ft | 168 kts | 306° |
| 2026-04-19 23:48 | -10.19829 | -59.46612 | 1582 ft | 173 kts | 284° |
| 2026-04-19 23:48 | -10.20056 | -59.47700 | 1954 ft | 157 kts | 232° |
| 2026-04-19 23:48 | -10.21078 | -59.48082 | 1898 ft | 170 kts | 174° |
| 2026-04-19 23:49 | -10.22054 | -59.47479 | 1959 ft | 164 kts | 124° |
| 2026-04-19 23:49 | -10.22645 | -59.46492 | 1873 ft | 164 kts | 116° |
| 2026-04-19 23:49 | -10.22642 | -59.45446 | 1514 ft | 149 kts | 46° |
| 2026-04-19 23:49 | -10.21753 | -59.45159 | 1382 ft | 135 kts | 352° |
| 2026-04-19 23:50 | -10.20864 | -59.45398 | 1196 ft | 130 kts | 349° |
| 2026-04-19 23:50 | -10.20020 | -59.45540 | 952 ft | 116 kts | 352° |
| 2026-04-19 23:50 | -10.19242 | -59.45666 | 786 ft | 109 kts | 352° |
| 2026-04-19 23:50 | -10.18632 | -59.45762 | 754 ft | 62 kts | 353° |
| 2026-04-19 23:51 | -10.18439 | -59.45792 | 739 ft | 8 kts | 352° |
| 2026-04-19 23:51 | -10.18351 | -59.45808 | 739 ft | 14 kts | 347° |
| 2026-04-19 23:51 | -10.18286 | -59.45837 | 739 ft | 8 kts | 268° |
| 2026-04-19 23:51 | -10.18291 | -59.45876 | 739 ft | 4 kts | 294° |
| 2026-04-19 23:52 | -10.18269 | -59.45895 | 740 ft | 4 kts | 244° |
| 2026-04-19 23:52 | -10.18273 | -59.45915 | 740 ft | 0 kts | 259° |